Time;durP1;ratioP1;P1;durP2;ratioP2;P2;SDS_P1;SDS_P2;PMS_P1;PMS_P2;Temp;Humidity;BMP_temperature;BMP_pressure;BME280_temperature;BME280_humidity;BME280_pressure;Samples;Min_cycle;Max_cycle;Signal;HPM_P1;HPM_P2
2023/11/27 00:00:27;;;;;;;;;;;20.50;33.40;;;;;;4994124;28;20443;-47
2023/11/27 00:03:06;;;;;;;;;;;20.50;33.40;;;;;;4994009;28;19937;-46
2023/11/27 00:05:34;;;;;;;;;;;20.50;33.40;;;;;;4993653;28;19930;-46
2023/11/27 00:08:01;;;;;;;;;;;20.50;33.40;;;;;;4994061;28;20034;-47
2023/11/27 00:10:28;;;;;;;;;;;20.50;33.40;;;;;;4994194;28;19926;-50
2023/11/27 00:12:58;;;;;;;;;;;20.50;33.40;;;;;;4994269;28;19929;-47
2023/11/27 00:15:27;;;;;;;;;;;20.50;33.40;;;;;;4993876;28;19932;-50
2023/11/27 00:17:54;;;;;;;;;;;20.50;33.40;;;;;;4993848;28;19994;-54
2023/11/27 00:20:21;;;;;;;;;;;20.50;34.00;;;;;;4993337;28;20367;-54
2023/11/27 00:22:48;;;;;;;;;;;20.50;33.40;;;;;;4993783;28;19980;-53
2023/11/27 00:25:15;;;;;;;;;;;20.40;34.00;;;;;;4969271;28;19930;-53
2023/11/27 00:27:43;;;;;;;;;;;20.50;33.50;;;;;;4989235;28;19926;-53
2023/11/27 00:30:10;;;;;;;;;;;20.50;33.50;;;;;;4991973;28;19981;-54
2023/11/27 00:32:37;;;;;;;;;;;20.40;33.40;;;;;;4973999;28;19933;-51
2023/11/27 00:35:05;;;;;;;;;;;20.40;33.40;;;;;;4974592;28;19926;-49
2023/11/27 00:37:31;;;;;;;;;;;20.40;33.40;;;;;;4974524;28;20024;-51
2023/11/27 00:39:59;;;;;;;;;;;20.40;33.40;;;;;;4974339;28;19927;-51
2023/11/27 00:42:26;;;;;;;;;;;20.40;33.40;;;;;;4976919;28;20021;-50
2023/11/27 00:44:53;;;;;;;;;;;20.40;33.40;;;;;;4993741;28;20008;-47
2023/11/27 00:47:20;;;;;;;;;;;20.40;33.40;;;;;;4993835;28;20299;-53
2023/11/27 00:49:47;;;;;;;;;;;20.40;33.40;;;;;;4993681;28;20395;-51
2023/11/27 00:52:14;;;;;;;;;;;20.40;33.40;;;;;;4993337;28;19971;-48
2023/11/27 00:54:41;;;;;;;;;;;20.40;33.40;;;;;;4991795;28;19933;-49
2023/11/27 00:57:08;;;;;;;;;;;20.40;33.40;;;;;;4993574;28;19925;-48
2023/11/27 00:59:40;;;;;;;;;;;20.40;33.40;;;;;;4992864;28;19976;-52
2023/11/27 01:02:07;;;;;;;;;;;20.40;33.40;;;;;;4996702;28;19925;-47
2023/11/27 01:04:38;;;;;;;;;;;20.40;33.40;;;;;;4997430;28;19932;-47
2023/11/27 01:07:06;;;;;;;;;;;20.40;33.40;;;;;;4997183;28;19965;-52
2023/11/27 01:09:35;;;;;;;;;;;20.40;33.40;;;;;;4996990;28;20334;-51
2023/11/27 01:12:03;;;;;;;;;;;20.40;33.50;;;;;;4996915;28;19926;-49
2023/11/27 01:14:30;;;;;;;;;;;20.40;33.50;;;;;;4997096;28;19932;-47
2023/11/27 01:16:57;;;;;;;;;;;20.40;33.50;;;;;;4996561;28;20004;-47
2023/11/27 01:19:24;;;;;;;;;;;20.40;33.50;;;;;;4990311;28;20287;-48
2023/11/27 01:21:52;;;;;;;;;;;20.40;33.50;;;;;;4977441;28;19962;-47
2023/11/27 01:24:20;;;;;;;;;;;20.40;33.40;;;;;;4977192;28;19926;-49
2023/11/27 01:26:47;;;;;;;;;;;20.40;33.40;;;;;;4977475;28;19933;-47
2023/11/27 01:29:18;;;;;;;;;;;20.40;33.40;;;;;;4977081;28;20398;-47
2023/11/27 01:31:45;;;;;;;;;;;20.40;33.40;;;;;;4977088;28;19926;-48
2023/11/27 01:34:12;;;;;;;;;;;20.50;33.50;;;;;;4976292;28;19927;-52
2023/11/27 01:36:39;;;;;;;;;;;20.50;33.50;;;;;;4976553;28;19926;-46
2023/11/27 01:39:07;;;;;;;;;;;20.40;33.50;;;;;;4995999;28;20391;-46
2023/11/27 01:41:34;;;;;;;;;;;20.40;33.50;;;;;;4975324;28;19930;-47
2023/11/27 01:44:02;;;;;;;;;;;20.40;33.50;;;;;;4976998;28;19929;-50
2023/11/27 01:46:29;;;;;;;;;;;20.40;33.50;;;;;;4977017;28;19972;-46
2023/11/27 01:48:57;;;;;;;;;;;20.40;33.40;;;;;;4977095;28;19937;-48
2023/11/27 01:51:25;;;;;;;;;;;20.40;33.40;;;;;;4976906;28;20018;-46
2023/11/27 01:53:55;;;;;;;;;;;20.40;33.40;;;;;;4977072;28;20017;-48
2023/11/27 01:56:23;;;;;;;;;;;20.40;33.40;;;;;;4976823;28;19965;-47
2023/11/27 01:58:51;;;;;;;;;;;20.40;33.40;;;;;;4976860;28;20368;-52
2023/11/27 02:01:18;;;;;;;;;;;20.40;33.40;;;;;;4977513;28;20043;-53
2023/11/27 02:03:46;;;;;;;;;;;20.40;33.40;;;;;;4976625;28;19947;-53
2023/11/27 02:06:13;;;;;;;;;;;20.40;33.40;;;;;;4975987;28;19980;-50
2023/11/27 02:08:40;;;;;;;;;;;20.40;33.40;;;;;;4976577;28;20431;-51
2023/11/27 02:11:07;;;;;;;;;;;20.40;33.40;;;;;;4976783;28;19930;-53
2023/11/27 02:13:34;;;;;;;;;;;20.40;33.40;;;;;;4975652;28;20398;-47
2023/11/27 02:16:02;;;;;;;;;;;20.40;33.40;;;;;;4975971;28;20427;-49
2023/11/27 02:18:29;;;;;;;;;;;20.40;33.40;;;;;;4976041;28;19968;-52
2023/11/27 02:21:02;;;;;;;;;;;20.40;33.40;;;;;;4994336;28;19934;-51
2023/11/27 02:23:29;;;;;;;;;;;20.40;33.40;;;;;;4981241;28;19973;-47
2023/11/27 02:25:56;;;;;;;;;;;20.40;33.40;;;;;;4975953;28;20387;-48
2023/11/27 02:28:23;;;;;;;;;;;20.40;33.40;;;;;;4976546;28;19926;-47
2023/11/27 02:30:50;;;;;;;;;;;20.40;33.40;;;;;;4976158;28;19988;-50
2023/11/27 02:33:17;;;;;;;;;;;20.40;33.40;;;;;;4975655;28;19926;-47
2023/11/27 02:35:44;;;;;;;;;;;20.40;33.40;;;;;;4976100;28;19968;-50
2023/11/27 02:38:12;;;;;;;;;;;20.40;33.40;;;;;;4976382;28;19934;-50
2023/11/27 02:40:39;;;;;;;;;;;20.40;33.40;;;;;;4975754;28;19927;-46
2023/11/27 02:43:06;;;;;;;;;;;20.40;33.40;;;;;;4976175;28;20012;-50
2023/11/27 02:45:33;;;;;;;;;;;20.40;33.40;;;;;;4975876;28;20291;-50
2023/11/27 02:48:01;;;;;;;;;;;20.40;33.40;;;;;;4976011;28;19961;-49
2023/11/27 02:50:28;;;;;;;;;;;20.40;33.40;;;;;;4975656;28;20009;-46
2023/11/27 02:52:55;;;;;;;;;;;20.40;33.50;;;;;;4975669;28;19973;-48
2023/11/27 02:55:22;;;;;;;;;;;20.40;33.50;;;;;;4975698;28;19926;-48
2023/11/27 02:57:49;;;;;;;;;;;20.40;33.50;;;;;;4975483;28;19965;-50
2023/11/27 03:00:18;;;;;;;;;;;20.40;33.50;;;;;;4975114;28;19926;-47
2023/11/27 03:02:45;;;;;;;;;;;20.40;33.50;;;;;;4975850;28;19926;-46
2023/11/27 03:05:13;;;;;;;;;;;20.40;33.60;;;;;;4975431;28;19926;-50
2023/11/27 03:07:41;;;;;;;;;;;20.40;33.70;;;;;;4975349;28;20013;-48
2023/11/27 03:10:09;;;;;;;;;;;20.40;33.50;;;;;;4975284;28;19939;-51
2023/11/27 03:12:36;;;;;;;;;;;20.40;33.50;;;;;;4975523;28;19949;-47
2023/11/27 03:15:05;;;;;;;;;;;20.40;33.50;;;;;;4955240;28;19926;-46
2023/11/27 03:17:32;;;;;;;;;;;20.40;33.50;;;;;;4975127;28;20388;-48
2023/11/27 03:19:59;;;;;;;;;;;20.40;33.50;;;;;;4985782;28;19925;-47
2023/11/27 03:22:27;;;;;;;;;;;20.40;33.50;;;;;;4994126;28;20383;-46
2023/11/27 03:24:54;;;;;;;;;;;20.40;33.50;;;;;;4993970;28;20387;-46
2023/11/27 03:27:20;;;;;;;;;;;20.40;33.50;;;;;;4994368;28;19925;-46
2023/11/27 03:29:47;;;;;;;;;;;20.40;33.50;;;;;;4995170;28;19992;-48
2023/11/27 03:32:15;;;;;;;;;;;20.40;34.00;;;;;;4994244;28;19965;-47
2023/11/27 03:34:43;;;;;;;;;;;20.40;33.40;;;;;;4994590;28;19926;-52
2023/11/27 03:37:10;;;;;;;;;;;20.40;33.40;;;;;;4994095;28;19925;-46
2023/11/27 03:39:37;;;;;;;;;;;20.40;33.40;;;;;;4994338;28;19936;-46
2023/11/27 03:42:04;;;;;;;;;;;20.40;33.40;;;;;;4994284;28;20029;-50
2023/11/27 03:44:31;;;;;;;;;;;20.40;33.40;;;;;;4994273;28;20037;-56
2023/11/27 03:46:58;;;;;;;;;;;20.40;33.40;;;;;;4993972;28;20351;-53
2023/11/27 03:49:25;;;;;;;;;;;20.50;33.50;;;;;;4994037;28;19926;-53
2023/11/27 03:51:52;;;;;;;;;;;20.40;33.40;;;;;;4993993;28;20395;-51
2023/11/27 03:54:19;;;;;;;;;;;20.40;33.40;;;;;;4994037;28;19974;-49
2023/11/27 03:56:46;;;;;;;;;;;20.40;33.40;;;;;;4994174;28;19930;-52
2023/11/27 03:59:13;;;;;;;;;;;20.40;33.50;;;;;;4994035;28;20396;-48
2023/11/27 04:01:40;;;;;;;;;;;20.40;33.50;;;;;;4983880;28;19933;-52
2023/11/27 04:04:07;;;;;;;;;;;20.40;33.50;;;;;;4974710;28;19933;-47
2023/11/27 04:06:34;;;;;;;;;;;20.40;33.50;;;;;;4974367;28;19926;-51
2023/11/27 04:09:01;;;;;;;;;;;20.40;33.50;;;;;;4974514;28;19950;-52
2023/11/27 04:11:28;;;;;;;;;;;20.40;33.50;;;;;;4974675;28;20014;-46
2023/11/27 04:13:58;;;;;;;;;;;20.40;33.50;;;;;;4957685;28;19977;-50
2023/11/27 04:16:25;;;;;;;;;;;20.40;33.50;;;;;;4971040;28;19997;-51
2023/11/27 04:18:52;;;;;;;;;;;20.40;33.50;;;;;;4976340;28;20287;-47
2023/11/27 04:21:19;;;;;;;;;;;20.40;33.50;;;;;;4986846;28;20319;-46
2023/11/27 04:23:47;;;;;;;;;;;20.40;33.50;;;;;;4974353;28;20009;-53
2023/11/27 04:26:15;;;;;;;;;;;20.40;33.50;;;;;;4974079;28;19957;-52
2023/11/27 04:28:42;;;;;;;;;;;20.40;33.50;;;;;;4974581;28;20370;-46
2023/11/27 04:31:09;;;;;;;;;;;20.40;33.50;;;;;;4973960;28;19988;-46
2023/11/27 04:33:37;;;;;;;;;;;20.40;33.50;;;;;;4974400;28;19953;-49
2023/11/27 04:36:07;;;;;;;;;;;20.40;33.50;;;;;;4971488;28;20021;-49
2023/11/27 04:38:34;;;;;;;;;;;20.40;33.60;;;;;;4987198;28;19981;-46
2023/11/27 04:41:02;;;;;;;;;;;20.40;33.30;;;;;;4987180;28;19925;-47
2023/11/27 04:43:29;;;;;;;;;;;20.40;33.10;;;;;;4988080;28;19929;-46
2023/11/27 04:45:56;;;;;;;;;;;20.40;33.10;;;;;;4986491;28;20391;-49
2023/11/27 04:48:23;;;;;;;;;;;20.40;33.00;;;;;;4992431;28;19926;-46
2023/11/27 04:50:50;;;;;;;;;;;20.40;33.00;;;;;;4977479;28;20004;-48
2023/11/27 04:53:17;;;;;;;;;;;20.40;33.00;;;;;;4977852;28;19948;-48
2023/11/27 04:55:44;;;;;;;;;;;20.40;33.00;;;;;;4977946;28;19990;-46
2023/11/27 04:58:11;;;;;;;;;;;20.40;33.00;;;;;;4979121;28;20398;-46
2023/11/27 05:00:38;;;;;;;;;;;20.40;33.10;;;;;;4996751;28;20024;-46
2023/11/27 05:03:05;;;;;;;;;;;20.40;33.60;;;;;;4996821;28;20397;-51
2023/11/27 05:05:32;;;;;;;;;;;20.40;32.90;;;;;;4996929;28;19989;-45
2023/11/27 05:07:59;;;;;;;;;;;20.40;32.90;;;;;;4997225;28;19930;-48
2023/11/27 05:10:28;;;;;;;;;;;20.40;32.80;;;;;;4997031;28;20009;-47
2023/11/27 05:12:55;;;;;;;;;;;20.40;32.80;;;;;;4997048;28;19926;-46
2023/11/27 05:15:22;;;;;;;;;;;20.40;33.00;;;;;;4996462;28;19933;-46
2023/11/27 05:17:51;;;;;;;;;;;20.40;32.70;;;;;;4975508;28;19965;-46
2023/11/27 05:20:18;;;;;;;;;;;20.40;32.70;;;;;;4971891;28;19926;-46
2023/11/27 05:22:45;;;;;;;;;;;20.50;32.70;;;;;;4977178;28;19969;-49
2023/11/27 05:25:12;;;;;;;;;;;20.50;32.70;;;;;;4974550;28;19926;-46
2023/11/27 05:27:40;;;;;;;;;;;20.50;32.70;;;;;;4977039;28;20418;-49
2023/11/27 05:30:07;;;;;;;;;;;20.50;32.60;;;;;;4977124;28;20257;-52
2023/11/27 05:32:35;;;;;;;;;;;20.50;32.60;;;;;;4976969;28;19985;-53
2023/11/27 05:35:02;;;;;;;;;;;20.50;32.50;;;;;;4977206;28;19926;-52
2023/11/27 05:37:29;;;;;;;;;;;20.50;32.50;;;;;;4977039;28;20020;-51
2023/11/27 05:39:56;;;;;;;;;;;20.60;32.50;;;;;;4976976;28;19949;-52
2023/11/27 05:42:26;;;;;;;;;;;20.60;32.50;;;;;;4976757;28;19932;-51
2023/11/27 05:44:59;;;;;;;;;;;20.60;32.50;;;;;;4975739;28;20177;-52
2023/11/27 05:47:27;;;;;;;;;;;20.60;32.40;;;;;;4976851;28;19974;-51
2023/11/27 05:49:54;;;;;;;;;;;20.60;32.40;;;;;;4976733;28;19972;-48
2023/11/27 05:52:21;;;;;;;;;;;20.60;32.30;;;;;;4976654;28;19965;-51
2023/11/27 05:54:48;;;;;;;;;;;20.60;32.30;;;;;;4976777;28;20355;-50
2023/11/27 05:57:15;;;;;;;;;;;20.60;32.30;;;;;;4976703;28;19926;-52
2023/11/27 05:59:42;;;;;;;;;;;20.60;32.30;;;;;;4976383;28;19926;-50
2023/11/27 06:02:09;;;;;;;;;;;20.60;32.30;;;;;;4976593;28;19976;-52
2023/11/27 06:04:36;;;;;;;;;;;20.70;32.30;;;;;;4975341;28;19926;-53
2023/11/27 06:07:03;;;;;;;;;;;20.70;32.30;;;;;;4976484;28;19933;-47
2023/11/27 06:09:30;;;;;;;;;;;20.70;32.30;;;;;;4975794;28;19934;-48
2023/11/27 06:11:57;;;;;;;;;;;20.70;32.30;;;;;;4974948;28;19927;-47
2023/11/27 06:14:24;;;;;;;;;;;20.70;32.20;;;;;;4975256;28;19926;-51
2023/11/27 06:16:51;;;;;;;;;;;20.70;32.20;;;;;;4969577;28;21062;-53
2023/11/27 06:19:19;;;;;;;;;;;20.70;32.20;;;;;;4980655;28;20387;-52
2023/11/27 06:21:46;;;;;;;;;;;20.70;32.20;;;;;;4961068;28;19930;-52
2023/11/27 06:24:13;;;;;;;;;;;20.70;32.50;;;;;;4976289;28;19981;-52
2023/11/27 06:26:40;;;;;;;;;;;20.80;32.60;;;;;;4972621;28;19965;-49
2023/11/27 06:29:07;;;;;;;;;;;20.90;32.80;;;;;;4968863;28;20396;-50
2023/11/27 06:31:35;;;;;;;;;;;20.90;32.70;;;;;;4969910;28;20008;-54
2023/11/27 06:34:02;;;;;;;;;;;21.00;32.50;;;;;;4966133;28;20048;-46
2023/11/27 06:36:29;;;;;;;;;;;21.00;32.50;;;;;;4963202;28;19926;-49
2023/11/27 06:38:56;;;;;;;;;;;21.10;32.60;;;;;;4963094;28;21407;-49
2023/11/27 06:41:25;;;;;;;;;;;21.20;33.00;;;;;;4964911;28;19926;-52
2023/11/27 06:43:52;;;;;;;;;;;21.30;33.30;;;;;;4967587;28;19971;-49
2023/11/27 06:46:19;;;;;;;;;;;21.40;33.20;;;;;;4963692;28;19934;-49
2023/11/27 06:48:46;;;;;;;;;;;21.50;33.00;;;;;;4967063;28;19926;-52
2023/11/27 06:51:14;;;;;;;;;;;21.60;32.90;;;;;;4966026;28;19980;-55
2023/11/27 06:53:41;;;;;;;;;;;21.70;32.50;;;;;;4970088;28;20025;-50
2023/11/27 06:56:08;;;;;;;;;;;21.80;32.50;;;;;;4965289;28;19930;-53
2023/11/27 06:58:35;;;;;;;;;;;21.90;32.50;;;;;;4966692;28;19971;-53
2023/11/27 07:01:04;;;;;;;;;;;22.00;32.50;;;;;;4961791;28;19934;-52
2023/11/27 07:03:31;;;;;;;;;;;22.00;32.40;;;;;;4960456;28;19934;-52
2023/11/27 07:05:58;;;;;;;;;;;22.10;32.40;;;;;;4961088;28;19953;-50
2023/11/27 07:08:26;;;;;;;;;;;22.20;32.40;;;;;;4966427;28;20467;-53
2023/11/27 07:10:53;;;;;;;;;;;22.30;32.30;;;;;;4961649;28;20260;-50
2023/11/27 07:13:23;;;;;;;;;;;22.30;32.20;;;;;;4962505;28;20418;-53
2023/11/27 07:15:50;;;;;;;;;;;22.50;32.10;;;;;;4966461;28;20013;-58
2023/11/27 07:18:18;;;;;;;;;;;22.50;31.90;;;;;;4970392;28;19933;-51
2023/11/27 07:20:48;;;;;;;;;;;22.60;31.80;;;;;;4971107;28;20998;-52
2023/11/27 07:23:16;;;;;;;;;;;22.60;31.70;;;;;;4968470;28;20099;-49
2023/11/27 07:25:43;;;;;;;;;;;22.60;31.60;;;;;;4964785;28;19933;-51
2023/11/27 07:28:11;;;;;;;;;;;22.70;31.60;;;;;;4964837;28;19930;-48
2023/11/27 07:30:38;;;;;;;;;;;22.80;31.50;;;;;;4964776;28;19934;-50
2023/11/27 07:33:05;;;;;;;;;;;22.80;31.40;;;;;;4966589;28;19941;-53
2023/11/27 07:35:32;;;;;;;;;;;22.80;31.30;;;;;;4962716;28;19934;-52
2023/11/27 07:37:59;;;;;;;;;;;22.90;31.30;;;;;;4962360;28;19926;-50
2023/11/27 07:40:28;;;;;;;;;;;23.00;31.40;;;;;;4970865;28;20360;-50
2023/11/27 07:42:55;;;;;;;;;;;23.00;31.40;;;;;;4968419;28;20603;-48
2023/11/27 07:45:22;;;;;;;;;;;23.10;31.20;;;;;;4967936;28;20009;-52
2023/11/27 07:47:49;;;;;;;;;;;23.20;31.30;;;;;;4970455;28;19988;-51
2023/11/27 07:50:19;;;;;;;;;;;23.30;31.10;;;;;;4967814;28;19936;-52
2023/11/27 07:52:48;;;;;;;;;;;23.30;31.00;;;;;;4968992;28;20371;-52
2023/11/27 07:55:15;;;;;;;;;;;23.40;30.90;;;;;;4966979;28;19926;-53
2023/11/27 07:57:43;;;;;;;;;;;23.40;30.90;;;;;;4950772;28;19934;-49
2023/11/27 08:00:14;;;;;;;;;;;23.50;31.00;;;;;;4970377;28;20314;-47
2023/11/27 08:02:43;;;;;;;;;;;23.50;30.70;;;;;;4948750;28;20387;-47
2023/11/27 08:05:11;;;;;;;;;;;23.60;30.60;;;;;;4967816;28;19942;-50
2023/11/27 08:07:39;;;;;;;;;;;23.60;30.60;;;;;;4964451;28;19941;-47
2023/11/27 08:10:08;;;;;;;;;;;23.70;30.50;;;;;;4966979;28;19933;-52
2023/11/27 08:12:36;;;;;;;;;;;23.70;30.60;;;;;;4967733;28;20036;-49
2023/11/27 08:15:06;;;;;;;;;;;23.80;30.70;;;;;;4973857;28;20375;-47
2023/11/27 08:17:33;;;;;;;;;;;23.90;30.60;;;;;;4974940;28;19930;-51
2023/11/27 08:20:05;;;;;;;;;;;23.90;30.50;;;;;;4968872;28;19937;-50
2023/11/27 08:22:32;;;;;;;;;;;24.00;30.50;;;;;;4977091;28;20413;-50
2023/11/27 08:25:00;;;;;;;;;;;24.00;30.70;;;;;;4978116;28;20017;-55
2023/11/27 08:27:27;;;;;;;;;;;24.10;30.80;;;;;;4976202;28;19937;-52
2023/11/27 08:29:54;;;;;;;;;;;24.10;30.70;;;;;;4975291;28;19930;-53
2023/11/27 08:32:21;;;;;;;;;;;24.10;30.60;;;;;;4970631;28;20168;-53
2023/11/27 08:34:49;;;;;;;;;;;24.10;30.50;;;;;;4975428;28;20012;-48
2023/11/27 08:37:16;;;;;;;;;;;24.20;30.30;;;;;;4972021;28;19937;-54
2023/11/27 08:39:44;;;;;;;;;;;24.20;30.20;;;;;;4973501;28;20022;-55
2023/11/27 08:42:11;;;;;;;;;;;24.30;30.30;;;;;;4968998;28;19934;-49
2023/11/27 08:44:38;;;;;;;;;;;24.30;30.20;;;;;;4967990;28;20025;-52
2023/11/27 08:47:05;;;;;;;;;;;24.30;30.00;;;;;;4968764;28;20439;-56
2023/11/27 08:49:33;;;;;;;;;;;24.30;29.90;;;;;;4971024;28;19930;-52
2023/11/27 08:52:00;;;;;;;;;;;24.40;30.00;;;;;;4975042;28;19930;-54
2023/11/27 08:54:32;;;;;;;;;;;24.40;30.10;;;;;;4973642;28;19934;-50
2023/11/27 08:56:59;;;;;;;;;;;24.50;30.10;;;;;;4971930;28;20283;-53
2023/11/27 08:59:26;;;;;;;;;;;24.50;30.10;;;;;;4952129;28;20368;-49
2023/11/27 09:01:53;;;;;;;;;;;24.50;30.00;;;;;;4967714;28;19934;-52
2023/11/27 09:04:22;;;;;;;;;;;24.60;29.90;;;;;;4974149;28;19984;-52
2023/11/27 09:06:50;;;;;;;;;;;24.60;29.90;;;;;;4979510;28;19930;-53
2023/11/27 09:09:18;;;;;;;;;;;24.60;29.80;;;;;;4971646;28;20208;-53
2023/11/27 09:11:46;;;;;;;;;;;24.70;29.80;;;;;;4978330;28;20272;-55
2023/11/27 09:14:13;;;;;;;;;;;24.70;29.80;;;;;;4975136;28;19940;-53
2023/11/27 09:16:40;;;;;;;;;;;24.70;29.80;;;;;;4968882;28;19969;-54
2023/11/27 09:19:10;;;;;;;;;;;24.80;29.70;;;;;;4975909;28;19946;-50
2023/11/27 09:21:37;;;;;;;;;;;24.80;29.80;;;;;;4975069;28;19937;-52
2023/11/27 09:24:05;;;;;;;;;;;24.80;29.70;;;;;;4973512;28;19926;-49
2023/11/27 09:26:32;;;;;;;;;;;24.90;29.60;;;;;;4976663;28;20016;-54
2023/11/27 09:28:59;;;;;;;;;;;24.90;29.70;;;;;;4969557;28;20419;-49
2023/11/27 09:31:26;;;;;;;;;;;24.90;29.60;;;;;;4975195;28;20368;-52
2023/11/27 09:33:54;;;;;;;;;;;24.90;29.60;;;;;;4973648;28;19930;-53
2023/11/27 09:36:21;;;;;;;;;;;24.90;29.50;;;;;;4969324;28;20272;-53
2023/11/27 09:38:49;;;;;;;;;;;24.90;29.50;;;;;;4971360;28;19930;-50
2023/11/27 09:41:16;;;;;;;;;;;25.00;29.60;;;;;;4964474;28;19926;-55
2023/11/27 09:43:43;;;;;;;;;;;25.00;29.50;;;;;;4953152;28;19932;-54
2023/11/27 09:46:16;;;;;;;;;;;25.00;29.40;;;;;;4970110;28;19945;-54
2023/11/27 09:48:44;;;;;;;;;;;25.00;29.30;;;;;;4968982;28;19965;-54
2023/11/27 09:51:12;;;;;;;;;;;25.10;29.30;;;;;;4970630;28;19961;-57
2023/11/27 09:53:45;;;;;;;;;;;25.10;29.20;;;;;;4961324;28;20052;-53
2023/11/27 09:56:13;;;;;;;;;;;25.10;29.20;;;;;;4971366;28;19969;-54
2023/11/27 09:58:42;;;;;;;;;;;25.10;29.20;;;;;;4967149;28;19995;-54
2023/11/27 10:01:11;;;;;;;;;;;25.10;29.20;;;;;;4964573;28;19966;-53
2023/11/27 10:03:39;;;;;;;;;;;25.10;29.10;;;;;;4974908;28;20032;-51
2023/11/27 10:06:06;;;;;;;;;;;25.20;29.00;;;;;;4969546;28;19926;-50
2023/11/27 10:08:33;;;;;;;;;;;25.20;29.10;;;;;;4972553;28;19940;-54
2023/11/27 10:11:00;;;;;;;;;;;25.20;29.10;;;;;;4973605;28;20008;-53
2023/11/27 10:13:29;;;;;;;;;;;25.30;29.20;;;;;;4970256;28;20028;-50
2023/11/27 10:16:18;;;;;;;;;;;25.30;29.20;;;;;;4967505;28;20026;-53
2023/11/27 10:18:49;;;;;;;;;;;25.30;29.20;;;;;;4966918;28;19952;-48
2023/11/27 10:21:16;;;;;;;;;;;25.40;29.20;;;;;;4966133;28;19934;-52
2023/11/27 10:23:44;;;;;;;;;;;25.40;29.20;;;;;;4966563;28;19973;-54
2023/11/27 10:26:10;;;;;;;;;;;25.50;29.10;;;;;;4965588;28;20004;-53
2023/11/27 10:28:45;;;;;;;;;;;25.60;29.10;;;;;;4971287;28;20395;-52
2023/11/27 10:31:14;;;;;;;;;;;25.60;29.10;;;;;;4968232;28;19989;-51
2023/11/27 10:33:41;;;;;;;;;;;25.60;29.10;;;;;;4967549;28;19926;-52
2023/11/27 10:36:09;;;;;;;;;;;25.70;29.10;;;;;;4960551;28;19989;-58
2023/11/27 10:38:36;;;;;;;;;;;25.70;29.00;;;;;;4967976;28;19930;-55
2023/11/27 10:41:05;;;;;;;;;;;25.70;28.90;;;;;;4969458;28;19969;-53
2023/11/27 10:43:34;;;;;;;;;;;25.70;28.90;;;;;;4970197;28;19937;-50
2023/11/27 10:46:03;;;;;;;;;;;25.70;28.90;;;;;;4968895;28;19934;-53
2023/11/27 10:48:31;;;;;;;;;;;25.60;28.80;;;;;;4968660;28;19937;-53
2023/11/27 10:51:12;;;;;;;;;;;25.70;28.80;;;;;;4971335;28;19934;-53
2023/11/27 10:53:40;;;;;;;;;;;25.70;28.70;;;;;;4973672;28;20004;-49
2023/11/27 10:56:09;;;;;;;;;;;25.60;28.70;;;;;;4970872;28;20295;-54
2023/11/27 10:58:37;;;;;;;;;;;25.70;28.70;;;;;;4972688;28;19984;-53
2023/11/27 11:01:07;;;;;;;;;;;25.70;28.60;;;;;;4962238;28;19941;-52
2023/11/27 11:03:37;;;;;;;;;;;25.70;28.70;;;;;;4968556;28;20375;-50
2023/11/27 11:06:06;;;;;;;;;;;25.70;28.70;;;;;;4969964;28;19930;-54
2023/11/27 11:08:34;;;;;;;;;;;25.70;28.70;;;;;;4968544;28;19934;-53
2023/11/27 11:11:05;;;;;;;;;;;25.70;28.60;;;;;;4971389;28;19941;-50
2023/11/27 11:13:33;;;;;;;;;;;25.70;28.70;;;;;;4968232;28;20394;-54
2023/11/27 11:16:08;;;;;;;;;;;25.70;28.60;;;;;;4971625;28;19934;-51
2023/11/27 11:18:43;;;;;;;;;;;25.80;28.60;;;;;;4967338;28;19933;-55
2023/11/27 11:21:30;;;;;;;;;;;25.80;28.40;;;;;;4970432;28;19934;-52
2023/11/27 11:24:19;;;;;;;;;;;25.80;28.40;;;;;;4951002;28;20509;-55
2023/11/27 11:27:07;;;;;;;;;;;25.80;28.70;;;;;;4964429;28;20388;-51
2023/11/27 11:29:36;;;;;;;;;;;25.80;28.60;;;;;;4965835;28;20355;-53
2023/11/27 11:32:08;;;;;;;;;;;25.80;29.00;;;;;;4965897;28;19988;-53
2023/11/27 11:34:36;;;;;;;;;;;25.80;28.70;;;;;;4969033;28;20373;-51
2023/11/27 11:37:06;;;;;;;;;;;25.80;28.60;;;;;;4975141;28;19933;-52
2023/11/27 11:39:33;;;;;;;;;;;25.80;28.90;;;;;;4968144;28;19930;-51
2023/11/27 11:42:02;;;;;;;;;;;25.80;28.80;;;;;;4968806;28;19977;-53
2023/11/27 11:44:34;;;;;;;;;;;25.90;28.70;;;;;;4972552;28;19973;-52
2023/11/27 11:47:21;;;;;;;;;;;25.90;28.60;;;;;;4967916;28;19926;-57
2023/11/27 11:49:48;;;;;;;;;;;26.00;28.70;;;;;;4967987;28;19926;-51
2023/11/27 11:52:18;;;;;;;;;;;26.00;28.50;;;;;;4964541;28;19961;-53
2023/11/27 11:54:47;;;;;;;;;;;26.00;28.50;;;;;;4967862;28;19980;-55
2023/11/27 11:57:22;;;;;;;;;;;26.00;28.40;;;;;;4972628;28;19926;-53
2023/11/27 11:59:50;;;;;;;;;;;26.10;28.30;;;;;;4966256;28;20399;-52
2023/11/27 12:02:18;;;;;;;;;;;26.00;28.40;;;;;;4966590;28;19934;-50
2023/11/27 12:04:48;;;;;;;;;;;26.10;28.30;;;;;;4970231;28;19946;-51
2023/11/27 12:07:15;;;;;;;;;;;26.10;28.30;;;;;;4951238;28;20060;-56
2023/11/27 12:09:43;;;;;;;;;;;26.10;28.30;;;;;;4969622;28;19926;-56
2023/11/27 12:12:15;;;;;;;;;;;26.10;28.30;;;;;;4968371;28;20012;-56
2023/11/27 12:14:45;;;;;;;;;;;26.10;28.50;;;;;;4965072;28;19938;-53
2023/11/27 12:17:15;;;;;;;;;;;26.10;28.40;;;;;;4967137;28;19930;-52
2023/11/27 12:19:48;;;;;;;;;;;26.10;28.40;;;;;;4966304;28;19988;-55
2023/11/27 12:22:18;;;;;;;;;;;26.10;28.50;;;;;;4964078;28;20375;-56
2023/11/27 12:24:46;;;;;;;;;;;26.10;28.30;;;;;;4964473;28;20272;-54
2023/11/27 12:27:14;;;;;;;;;;;26.10;28.10;;;;;;4966838;28;19930;-56
2023/11/27 12:29:44;;;;;;;;;;;26.10;28.10;;;;;;4964542;28;19936;-56
2023/11/27 12:32:16;;;;;;;;;;;26.10;28.10;;;;;;4963289;28;19930;-54
2023/11/27 12:34:43;;;;;;;;;;;26.10;28.10;;;;;;4967861;28;19938;-52
2023/11/27 12:37:10;;;;;;;;;;;26.10;28.10;;;;;;4968577;28;20288;-55
2023/11/27 12:39:40;;;;;;;;;;;26.20;28.10;;;;;;4964578;28;19941;-50
2023/11/27 12:42:13;;;;;;;;;;;26.20;28.10;;;;;;4965040;28;20004;-51
2023/11/27 12:44:46;;;;;;;;;;;26.20;28.10;;;;;;4970154;28;19985;-50
2023/11/27 12:47:18;;;;;;;;;;;26.20;28.10;;;;;;4964950;28;19930;-53
2023/11/27 12:49:51;;;;;;;;;;;26.20;28.10;;;;;;4970410;28;19930;-52
2023/11/27 12:52:19;;;;;;;;;;;26.20;28.00;;;;;;4963517;28;20380;-50
2023/11/27 12:54:54;;;;;;;;;;;26.20;28.10;;;;;;4965488;28;19977;-53
2023/11/27 12:57:22;;;;;;;;;;;26.20;28.10;;;;;;4968295;28;19945;-53
2023/11/27 12:59:50;;;;;;;;;;;26.20;28.20;;;;;;4973346;28;19993;-53
2023/11/27 13:02:21;;;;;;;;;;;26.20;28.20;;;;;;4970738;28;19988;-52
2023/11/27 13:04:53;;;;;;;;;;;26.20;28.30;;;;;;4971190;28;19934;-51
2023/11/27 13:07:21;;;;;;;;;;;26.20;28.40;;;;;;4969690;28;19969;-49
2023/11/27 13:09:52;;;;;;;;;;;26.20;28.30;;;;;;4973293;28;19954;-50
2023/11/27 13:12:20;;;;;;;;;;;26.20;28.30;;;;;;4972614;28;19969;-52
2023/11/27 13:14:51;;;;;;;;;;;26.20;28.20;;;;;;4970532;28;19941;-50
2023/11/27 13:17:18;;;;;;;;;;;26.20;28.10;;;;;;4967511;28;19973;-55
2023/11/27 13:19:54;;;;;;;;;;;26.20;28.10;;;;;;4971585;28;20407;-54
2023/11/27 13:22:24;;;;;;;;;;;26.20;28.70;;;;;;4970143;28;19930;-52
2023/11/27 13:24:51;;;;;;;;;;;26.20;28.30;;;;;;4971715;28;19976;-53
2023/11/27 13:27:20;;;;;;;;;;;26.20;28.40;;;;;;4966415;28;19934;-53
2023/11/27 13:29:50;;;;;;;;;;;26.20;28.30;;;;;;4974067;28;19952;-52
2023/11/27 13:32:17;;;;;;;;;;;26.20;28.30;;;;;;4968384;28;20336;-51
2023/11/27 13:34:55;;;;;;;;;;;26.20;28.30;;;;;;4973114;28;20307;-55
2023/11/27 13:37:23;;;;;;;;;;;26.20;28.30;;;;;;4963999;28;19930;-56
2023/11/27 13:39:57;;;;;;;;;;;26.20;28.10;;;;;;4969802;28;20021;-51
2023/11/27 13:42:25;;;;;;;;;;;26.10;28.10;;;;;;4968724;28;19933;-55
2023/11/27 13:44:53;;;;;;;;;;;26.10;28.20;;;;;;4967605;28;19934;-53
2023/11/27 13:47:20;;;;;;;;;;;26.10;28.20;;;;;;4961130;28;20081;-52
2023/11/27 13:49:55;;;;;;;;;;;26.00;28.30;;;;;;4946838;28;19934;-51
2023/11/27 13:52:28;;;;;;;;;;;26.00;28.40;;;;;;4945226;28;20020;-54
2023/11/27 13:54:58;;;;;;;;;;;26.00;28.40;;;;;;4941294;28;19941;-54
2023/11/27 13:57:30;;;;;;;;;;;25.90;28.30;;;;;;4939836;28;19934;-53
2023/11/27 13:59:58;;;;;;;;;;;25.90;28.40;;;;;;4940395;28;19941;-54
2023/11/27 14:02:31;;;;;;;;;;;25.80;28.60;;;;;;4926020;28;20078;-53
2023/11/27 14:05:09;;;;;;;;;;;25.70;28.70;;;;;;4930610;28;19934;-53
2023/11/27 14:07:40;;;;;;;;;;;25.60;28.60;;;;;;4934874;28;19934;-53
2023/11/27 14:10:27;;;;;;;;;;;25.60;28.70;;;;;;4937773;28;19934;-53
2023/11/27 14:13:00;;;;;;;;;;;25.50;28.80;;;;;;4941264;28;19940;-51
2023/11/27 14:15:37;;;;;;;;;;;25.40;28.80;;;;;;4938928;28;19941;-52
2023/11/27 14:18:27;;;;;;;;;;;25.40;28.90;;;;;;4933752;28;19956;-53
2023/11/27 14:29:06;;;;;;;;;;;25.10;29.40;;;;;;4944089;28;19934;-55
2023/11/27 14:31:33;;;;;;;;;;;25.10;29.40;;;;;;4964036;28;19934;-56